sensor_id;sensor_type;location;lat;lon;timestamp;P1;durP1;ratioP1;P2;durP2;ratioP2
71091;SDS011;58751;50.708;7.134;2023-02-10T00:01:01;28.88;;;17.65;;
71091;SDS011;58751;50.708;7.134;2023-02-10T00:03:26;22.30;;;15.52;;
71091;SDS011;58751;50.708;7.134;2023-02-10T00:05:51;29.37;;;18.37;;
71091;SDS011;58751;50.708;7.134;2023-02-10T00:08:16;22.13;;;16.90;;
71091;SDS011;58751;50.708;7.134;2023-02-10T00:10:42;27.77;;;17.20;;
71091;SDS011;58751;50.708;7.134;2023-02-10T00:13:07;24.40;;;16.03;;
71091;SDS011;58751;50.708;7.134;2023-02-10T00:15:33;24.53;;;17.07;;
71091;SDS011;58751;50.708;7.134;2023-02-10T00:17:59;24.88;;;17.75;;
71091;SDS011;58751;50.708;7.134;2023-02-10T00:20:24;25.20;;;15.83;;
71091;SDS011;58751;50.708;7.134;2023-02-10T00:22:49;23.17;;;16.90;;
71091;SDS011;58751;50.708;7.134;2023-02-10T00:25:14;22.87;;;16.10;;
71091;SDS011;58751;50.708;7.134;2023-02-10T00:27:39;30.73;;;16.43;;
71091;SDS011;58751;50.708;7.134;2023-02-10T00:30:05;23.83;;;17.30;;
71091;SDS011;58751;50.708;7.134;2023-02-10T00:32:31;23.63;;;17.63;;
71091;SDS011;58751;50.708;7.134;2023-02-10T00:34:57;25.25;;;17.25;;
71091;SDS011;58751;50.708;7.134;2023-02-10T00:37:22;24.50;;;16.77;;
71091;SDS011;58751;50.708;7.134;2023-02-10T00:39:47;27.60;;;16.93;;
71091;SDS011;58751;50.708;7.134;2023-02-10T00:42:12;25.77;;;15.10;;
71091;SDS011;58751;50.708;7.134;2023-02-10T00:44:37;23.00;;;15.80;;
71091;SDS011;58751;50.708;7.134;2023-02-10T00:47:03;25.93;;;16.53;;
71091;SDS011;58751;50.708;7.134;2023-02-10T00:49:29;33.37;;;18.83;;
71091;SDS011;58751;50.708;7.134;2023-02-10T00:51:54;23.70;;;17.20;;
71091;SDS011;58751;50.708;7.134;2023-02-10T00:54:20;22.67;;;15.60;;
71091;SDS011;58751;50.708;7.134;2023-02-10T00:56:45;24.70;;;16.83;;
71091;SDS011;58751;50.708;7.134;2023-02-10T00:59:11;27.03;;;16.93;;
71091;SDS011;58751;50.708;7.134;2023-02-10T01:01:36;28.88;;;15.98;;
71091;SDS011;58751;50.708;7.134;2023-02-10T01:04:01;29.03;;;18.27;;
71091;SDS011;58751;50.708;7.134;2023-02-10T01:06:28;32.97;;;18.63;;
71091;SDS011;58751;50.708;7.134;2023-02-10T01:08:53;26.83;;;16.88;;
71091;SDS011;58751;50.708;7.134;2023-02-10T01:11:18;23.17;;;15.10;;
71091;SDS011;58751;50.708;7.134;2023-02-10T01:13:44;21.17;;;17.17;;
71091;SDS011;58751;50.708;7.134;2023-02-10T01:16:10;27.60;;;17.70;;
71091;SDS011;58751;50.708;7.134;2023-02-10T01:18:36;22.55;;;17.20;;
71091;SDS011;58751;50.708;7.134;2023-02-10T01:21:05;24.70;;;16.73;;
71091;SDS011;58751;50.708;7.134;2023-02-10T01:23:32;22.73;;;15.80;;
71091;SDS011;58751;50.708;7.134;2023-02-10T01:25:58;24.40;;;17.70;;
71091;SDS011;58751;50.708;7.134;2023-02-10T01:28:24;25.00;;;17.25;;
71091;SDS011;58751;50.708;7.134;2023-02-10T01:30:49;25.50;;;16.93;;
71091;SDS011;58751;50.708;7.134;2023-02-10T01:33:14;28.17;;;17.50;;
71091;SDS011;58751;50.708;7.134;2023-02-10T01:35:39;28.90;;;16.57;;
71091;SDS011;58751;50.708;7.134;2023-02-10T01:38:04;29.03;;;16.83;;
71091;SDS011;58751;50.708;7.134;2023-02-10T01:40:31;24.63;;;16.10;;
71091;SDS011;58751;50.708;7.134;2023-02-10T01:42:56;25.85;;;16.38;;
71091;SDS011;58751;50.708;7.134;2023-02-10T01:45:25;23.33;;;15.73;;
71091;SDS011;58751;50.708;7.134;2023-02-10T01:47:51;23.15;;;16.92;;
71091;SDS011;58751;50.708;7.134;2023-02-10T01:50:17;24.83;;;16.50;;
71091;SDS011;58751;50.708;7.134;2023-02-10T01:52:43;30.77;;;17.98;;
71091;SDS011;58751;50.708;7.134;2023-02-10T01:55:10;26.23;;;16.70;;
71091;SDS011;58751;50.708;7.134;2023-02-10T01:57:37;29.88;;;18.35;;
71091;SDS011;58751;50.708;7.134;2023-02-10T02:00:05;26.58;;;18.17;;
71091;SDS011;58751;50.708;7.134;2023-02-10T02:02:30;25.80;;;17.60;;
71091;SDS011;58751;50.708;7.134;2023-02-10T02:04:58;26.63;;;17.20;;
71091;SDS011;58751;50.708;7.134;2023-02-10T02:07:24;33.28;;;20.02;;
71091;SDS011;58751;50.708;7.134;2023-02-10T02:09:50;32.30;;;19.65;;
71091;SDS011;58751;50.708;7.134;2023-02-10T02:12:18;34.20;;;18.77;;
71091;SDS011;58751;50.708;7.134;2023-02-10T02:14:47;30.25;;;18.85;;
71091;SDS011;58751;50.708;7.134;2023-02-10T02:17:18;31.08;;;19.23;;
71091;SDS011;58751;50.708;7.134;2023-02-10T02:20:01;36.40;;;21.15;;
71091;SDS011;58751;50.708;7.134;2023-02-10T02:22:35;28.17;;;18.85;;
71091;SDS011;58751;50.708;7.134;2023-02-10T02:25:14;30.92;;;19.40;;
71091;SDS011;58751;50.708;7.134;2023-02-10T02:27:52;34.60;;;20.00;;
71091;SDS011;58751;50.708;7.134;2023-02-10T02:33:03;31.67;;;20.05;;
71091;SDS011;58751;50.708;7.134;2023-02-10T02:35:34;27.65;;;18.52;;
71091;SDS011;58751;50.708;7.134;2023-02-10T02:38:02;33.13;;;19.10;;
71091;SDS011;58751;50.708;7.134;2023-02-10T02:40:27;28.50;;;18.30;;
71091;SDS011;58751;50.708;7.134;2023-02-10T02:42:52;29.23;;;20.40;;
71091;SDS011;58751;50.708;7.134;2023-02-10T02:45:20;29.38;;;19.98;;
71091;SDS011;58751;50.708;7.134;2023-02-10T02:47:53;31.17;;;19.27;;
71091;SDS011;58751;50.708;7.134;2023-02-10T02:50:24;32.63;;;19.35;;
71091;SDS011;58751;50.708;7.134;2023-02-10T02:52:59;35.50;;;21.13;;
71091;SDS011;58751;50.708;7.134;2023-02-10T02:55:30;38.95;;;20.30;;
71091;SDS011;58751;50.708;7.134;2023-02-10T02:57:57;28.48;;;20.05;;
71091;SDS011;58751;50.708;7.134;2023-02-10T03:00:27;32.53;;;19.73;;
71091;SDS011;58751;50.708;7.134;2023-02-10T03:02:54;27.88;;;19.52;;
71091;SDS011;58751;50.708;7.134;2023-02-10T03:05:20;28.07;;;17.80;;
71091;SDS011;58751;50.708;7.134;2023-02-10T03:07:46;27.43;;;18.33;;
71091;SDS011;58751;50.708;7.134;2023-02-10T03:10:12;36.17;;;20.30;;
71091;SDS011;58751;50.708;7.134;2023-02-10T03:12:37;25.23;;;17.60;;
71091;SDS011;58751;50.708;7.134;2023-02-10T03:15:02;31.33;;;19.60;;
71091;SDS011;58751;50.708;7.134;2023-02-10T03:17:28;34.77;;;20.20;;
71091;SDS011;58751;50.708;7.134;2023-02-10T03:19:53;27.87;;;19.60;;
71091;SDS011;58751;50.708;7.134;2023-02-10T03:22:18;28.00;;;18.03;;
71091;SDS011;58751;50.708;7.134;2023-02-10T03:24:45;29.67;;;19.30;;
71091;SDS011;58751;50.708;7.134;2023-02-10T03:27:10;31.15;;;19.83;;
71091;SDS011;58751;50.708;7.134;2023-02-10T03:29:35;30.50;;;19.30;;
71091;SDS011;58751;50.708;7.134;2023-02-10T03:32:00;30.63;;;20.20;;
71091;SDS011;58751;50.708;7.134;2023-02-10T03:34:25;24.90;;;17.40;;
71091;SDS011;58751;50.708;7.134;2023-02-10T03:36:51;29.60;;;19.00;;
71091;SDS011;58751;50.708;7.134;2023-02-10T03:39:16;29.53;;;18.50;;
71091;SDS011;58751;50.708;7.134;2023-02-10T03:41:42;24.77;;;17.93;;
71091;SDS011;58751;50.708;7.134;2023-02-10T03:44:08;25.25;;;18.50;;
71091;SDS011;58751;50.708;7.134;2023-02-10T03:46:33;27.70;;;19.50;;
71091;SDS011;58751;50.708;7.134;2023-02-10T03:48:58;24.03;;;16.90;;
71091;SDS011;58751;50.708;7.134;2023-02-10T03:51:23;30.23;;;18.73;;
71091;SDS011;58751;50.708;7.134;2023-02-10T03:53:48;29.50;;;17.37;;
71091;SDS011;58751;50.708;7.134;2023-02-10T03:56:14;28.13;;;17.50;;
71091;SDS011;58751;50.708;7.134;2023-02-10T03:58:40;28.17;;;18.20;;
71091;SDS011;58751;50.708;7.134;2023-02-10T04:01:09;27.88;;;18.58;;
71091;SDS011;58751;50.708;7.134;2023-02-10T04:03:34;25.63;;;18.25;;
71091;SDS011;58751;50.708;7.134;2023-02-10T04:06:00;24.90;;;17.27;;
71091;SDS011;58751;50.708;7.134;2023-02-10T04:08:25;28.17;;;18.00;;
71091;SDS011;58751;50.708;7.134;2023-02-10T04:10:50;26.37;;;17.47;;
71091;SDS011;58751;50.708;7.134;2023-02-10T04:13:15;26.27;;;17.47;;
71091;SDS011;58751;50.708;7.134;2023-02-10T04:15:42;24.93;;;16.17;;
71091;SDS011;58751;50.708;7.134;2023-02-10T04:18:07;26.35;;;16.60;;
71091;SDS011;58751;50.708;7.134;2023-02-10T04:20:32;29.50;;;17.03;;
71091;SDS011;58751;50.708;7.134;2023-02-10T04:22:57;22.40;;;17.77;;
71091;SDS011;58751;50.708;7.134;2023-02-10T04:25:23;22.70;;;16.37;;
71091;SDS011;58751;50.708;7.134;2023-02-10T04:27:48;26.63;;;18.50;;
71091;SDS011;58751;50.708;7.134;2023-02-10T04:30:13;29.80;;;17.90;;
71091;SDS011;58751;50.708;7.134;2023-02-10T04:32:40;27.90;;;17.80;;
71091;SDS011;58751;50.708;7.134;2023-02-10T04:35:05;29.15;;;19.88;;
71091;SDS011;58751;50.708;7.134;2023-02-10T04:37:30;26.97;;;16.97;;
71091;SDS011;58751;50.708;7.134;2023-02-10T04:39:55;25.93;;;17.33;;
71091;SDS011;58751;50.708;7.134;2023-02-10T04:42:21;27.97;;;18.60;;
71091;SDS011;58751;50.708;7.134;2023-02-10T04:44:46;29.70;;;18.50;;
71091;SDS011;58751;50.708;7.134;2023-02-10T04:47:11;21.13;;;16.20;;
71091;SDS011;58751;50.708;7.134;2023-02-10T04:49:37;25.77;;;16.30;;
71091;SDS011;58751;50.708;7.134;2023-02-10T04:52:03;28.52;;;16.70;;
71091;SDS011;58751;50.708;7.134;2023-02-10T04:54:28;27.20;;;18.63;;
71091;SDS011;58751;50.708;7.134;2023-02-10T04:56:53;27.73;;;17.00;;
71091;SDS011;58751;50.708;7.134;2023-02-10T04:59:18;30.50;;;19.00;;
71091;SDS011;58751;50.708;7.134;2023-02-10T05:01:43;24.90;;;16.23;;
71091;SDS011;58751;50.708;7.134;2023-02-10T05:04:09;27.70;;;17.30;;
71091;SDS011;58751;50.708;7.134;2023-02-10T05:06:35;25.97;;;18.67;;
71091;SDS011;58751;50.708;7.134;2023-02-10T05:09:01;25.90;;;17.33;;
71091;SDS011;58751;50.708;7.134;2023-02-10T05:11:26;24.33;;;16.37;;
71091;SDS011;58751;50.708;7.134;2023-02-10T05:13:51;28.67;;;18.87;;
71091;SDS011;58751;50.708;7.134;2023-02-10T05:16:16;27.43;;;17.67;;
71091;SDS011;58751;50.708;7.134;2023-02-10T05:18:42;28.20;;;18.57;;
71091;SDS011;58751;50.708;7.134;2023-02-10T05:21:07;29.87;;;18.50;;
71091;SDS011;58751;50.708;7.134;2023-02-10T05:23:34;28.17;;;18.43;;
71091;SDS011;58751;50.708;7.134;2023-02-10T05:26:00;30.73;;;17.70;;
71091;SDS011;58751;50.708;7.134;2023-02-10T05:28:25;29.60;;;17.40;;
71091;SDS011;58751;50.708;7.134;2023-02-10T05:30:50;31.83;;;19.77;;
71091;SDS011;58751;50.708;7.134;2023-02-10T05:33:15;26.97;;;17.07;;
71091;SDS011;58751;50.708;7.134;2023-02-10T05:35:41;36.13;;;19.70;;
71091;SDS011;58751;50.708;7.134;2023-02-10T05:38:06;28.60;;;17.87;;
71091;SDS011;58751;50.708;7.134;2023-02-10T05:40:33;30.03;;;19.00;;
71091;SDS011;58751;50.708;7.134;2023-02-10T05:42:58;30.30;;;19.02;;
71091;SDS011;58751;50.708;7.134;2023-02-10T05:45:23;30.73;;;18.00;;
71091;SDS011;58751;50.708;7.134;2023-02-10T05:47:48;28.73;;;19.20;;
71091;SDS011;58751;50.708;7.134;2023-02-10T05:50:14;37.50;;;19.50;;
71091;SDS011;58751;50.708;7.134;2023-02-10T05:52:39;27.63;;;17.63;;
71091;SDS011;58751;50.708;7.134;2023-02-10T05:55:05;32.37;;;19.00;;
71091;SDS011;58751;50.708;7.134;2023-02-10T05:57:31;29.90;;;20.30;;
71091;SDS011;58751;50.708;7.134;2023-02-10T05:59:57;27.35;;;18.23;;
71091;SDS011;58751;50.708;7.134;2023-02-10T06:02:22;29.43;;;19.87;;
71091;SDS011;58751;50.708;7.134;2023-02-10T06:04:47;26.00;;;18.00;;
71091;SDS011;58751;50.708;7.134;2023-02-10T06:07:12;29.37;;;17.70;;
71091;SDS011;58751;50.708;7.134;2023-02-10T06:09:38;34.40;;;20.70;;
71091;SDS011;58751;50.708;7.134;2023-02-10T06:12:03;31.10;;;18.07;;
71091;SDS011;58751;50.708;7.134;2023-02-10T06:14:29;27.07;;;17.20;;
71091;SDS011;58751;50.708;7.134;2023-02-10T06:16:55;27.50;;;18.23;;
71091;SDS011;58751;50.708;7.134;2023-02-10T06:19:20;31.50;;;20.23;;
71091;SDS011;58751;50.708;7.134;2023-02-10T06:21:45;31.30;;;20.07;;
71091;SDS011;58751;50.708;7.134;2023-02-10T06:24:10;30.60;;;19.20;;
71091;SDS011;58751;50.708;7.134;2023-02-10T06:26:35;28.43;;;20.67;;
71091;SDS011;58751;50.708;7.134;2023-02-10T06:29:01;33.53;;;19.60;;
71091;SDS011;58751;50.708;7.134;2023-02-10T06:31:27;31.20;;;18.20;;
71091;SDS011;58751;50.708;7.134;2023-02-10T06:33:53;33.47;;;20.63;;
71091;SDS011;58751;50.708;7.134;2023-02-10T06:36:18;27.83;;;18.60;;
71091;SDS011;58751;50.708;7.134;2023-02-10T06:38:43;33.93;;;19.93;;
71091;SDS011;58751;50.708;7.134;2023-02-10T06:41:08;31.70;;;21.33;;
71091;SDS011;58751;50.708;7.134;2023-02-10T06:43:33;28.97;;;19.30;;
71091;SDS011;58751;50.708;7.134;2023-02-10T06:45:59;35.93;;;21.40;;
71091;SDS011;58751;50.708;7.134;2023-02-10T06:48:25;28.30;;;19.00;;
71091;SDS011;58751;50.708;7.134;2023-02-10T06:50:50;37.55;;;18.95;;
71091;SDS011;58751;50.708;7.134;2023-02-10T06:53:16;28.20;;;18.73;;
71091;SDS011;58751;50.708;7.134;2023-02-10T06:55:41;29.27;;;18.80;;
71091;SDS011;58751;50.708;7.134;2023-02-10T06:58:06;35.67;;;19.67;;
71091;SDS011;58751;50.708;7.134;2023-02-10T07:00:31;30.33;;;18.93;;
71091;SDS011;58751;50.708;7.134;2023-02-10T07:02:56;32.70;;;19.70;;
71091;SDS011;58751;50.708;7.134;2023-02-10T07:05:23;28.47;;;18.50;;
71091;SDS011;58751;50.708;7.134;2023-02-10T07:07:48;27.60;;;18.73;;
71091;SDS011;58751;50.708;7.134;2023-02-10T07:10:13;29.23;;;18.47;;
71091;SDS011;58751;50.708;7.134;2023-02-10T07:12:39;31.87;;;19.93;;
71091;SDS011;58751;50.708;7.134;2023-02-10T07:15:04;32.17;;;18.60;;
71091;SDS011;58751;50.708;7.134;2023-02-10T07:17:29;31.70;;;19.03;;
71091;SDS011;58751;50.708;7.134;2023-02-10T07:19:55;28.13;;;17.60;;
71091;SDS011;58751;50.708;7.134;2023-02-10T07:22:21;28.67;;;18.70;;
71091;SDS011;58751;50.708;7.134;2023-02-10T07:24:46;29.55;;;20.30;;
71091;SDS011;58751;50.708;7.134;2023-02-10T07:27:11;27.80;;;18.80;;
71091;SDS011;58751;50.708;7.134;2023-02-10T07:29:37;33.20;;;20.87;;
71091;SDS011;58751;50.708;7.134;2023-02-10T07:32:02;31.23;;;19.20;;
71091;SDS011;58751;50.708;7.134;2023-02-10T07:34:27;30.07;;;17.77;;
71091;SDS011;58751;50.708;7.134;2023-02-10T07:36:52;32.13;;;19.97;;
71091;SDS011;58751;50.708;7.134;2023-02-10T07:39:19;32.63;;;19.70;;
71091;SDS011;58751;50.708;7.134;2023-02-10T07:41:44;33.38;;;20.30;;
71091;SDS011;58751;50.708;7.134;2023-02-10T07:44:10;31.57;;;20.63;;
71091;SDS011;58751;50.708;7.134;2023-02-10T07:46:35;29.60;;;20.03;;
71091;SDS011;58751;50.708;7.134;2023-02-10T07:49:00;32.90;;;20.07;;
71091;SDS011;58751;50.708;7.134;2023-02-10T07:51:25;32.97;;;20.43;;
71091;SDS011;58751;50.708;7.134;2023-02-10T07:53:50;36.20;;;20.00;;
71091;SDS011;58751;50.708;7.134;2023-02-10T07:56:17;27.80;;;18.60;;
71091;SDS011;58751;50.708;7.134;2023-02-10T07:58:42;33.55;;;19.55;;
71091;SDS011;58751;50.708;7.134;2023-02-10T08:01:08;30.50;;;19.50;;
71091;SDS011;58751;50.708;7.134;2023-02-10T08:03:33;38.80;;;20.47;;
71091;SDS011;58751;50.708;7.134;2023-02-10T08:05:58;27.40;;;19.10;;
71091;SDS011;58751;50.708;7.134;2023-02-10T08:08:23;28.27;;;19.27;;
71091;SDS011;58751;50.708;7.134;2023-02-10T08:10:49;31.13;;;19.37;;
71091;SDS011;58751;50.708;7.134;2023-02-10T08:13:15;24.87;;;17.20;;
71091;SDS011;58751;50.708;7.134;2023-02-10T08:15:40;30.00;;;20.45;;
71091;SDS011;58751;50.708;7.134;2023-02-10T08:18:06;30.40;;;19.90;;
71091;SDS011;58751;50.708;7.134;2023-02-10T08:20:31;32.40;;;20.23;;
71091;SDS011;58751;50.708;7.134;2023-02-10T08:22:56;31.70;;;20.00;;
71091;SDS011;58751;50.708;7.134;2023-02-10T08:25:22;33.90;;;21.27;;
71091;SDS011;58751;50.708;7.134;2023-02-10T08:27:47;30.30;;;19.60;;
71091;SDS011;58751;50.708;7.134;2023-02-10T08:30:14;30.60;;;18.57;;
71091;SDS011;58751;50.708;7.134;2023-02-10T08:32:39;31.40;;;21.10;;
71091;SDS011;58751;50.708;7.134;2023-02-10T08:35:05;24.80;;;19.20;;
71091;SDS011;58751;50.708;7.134;2023-02-10T08:37:30;26.00;;;16.57;;
71091;SDS011;58751;50.708;7.134;2023-02-10T08:39:55;30.40;;;19.70;;
71091;SDS011;58751;50.708;7.134;2023-02-10T08:42:20;30.13;;;19.07;;
71091;SDS011;58751;50.708;7.134;2023-02-10T08:44:46;31.83;;;19.87;;
71091;SDS011;58751;50.708;7.134;2023-02-10T08:47:12;31.73;;;18.83;;
71091;SDS011;58751;50.708;7.134;2023-02-10T08:49:37;28.23;;;19.30;;
71091;SDS011;58751;50.708;7.134;2023-02-10T08:52:03;34.70;;;19.63;;
71091;SDS011;58751;50.708;7.134;2023-02-10T08:54:28;27.83;;;18.30;;
71091;SDS011;58751;50.708;7.134;2023-02-10T08:56:54;30.20;;;20.30;;
71091;SDS011;58751;50.708;7.134;2023-02-10T08:59:19;30.73;;;21.13;;
71091;SDS011;58751;50.708;7.134;2023-02-10T09:01:44;25.33;;;19.40;;
71091;SDS011;58751;50.708;7.134;2023-02-10T09:04:11;29.60;;;17.80;;
71091;SDS011;58751;50.708;7.134;2023-02-10T09:06:37;26.60;;;18.05;;
71091;SDS011;58751;50.708;7.134;2023-02-10T09:09:03;26.80;;;19.15;;
71091;SDS011;58751;50.708;7.134;2023-02-10T09:11:28;31.07;;;20.17;;
71091;SDS011;58751;50.708;7.134;2023-02-10T09:13:53;29.57;;;20.00;;
71091;SDS011;58751;50.708;7.134;2023-02-10T09:16:18;28.07;;;21.37;;
71091;SDS011;58751;50.708;7.134;2023-02-10T09:18:44;29.60;;;18.90;;
71091;SDS011;58751;50.708;7.134;2023-02-10T09:21:10;24.60;;;18.03;;
71091;SDS011;58751;50.708;7.134;2023-02-10T09:23:36;31.90;;;19.27;;
71091;SDS011;58751;50.708;7.134;2023-02-10T09:26:01;26.40;;;17.53;;
71091;SDS011;58751;50.708;7.134;2023-02-10T09:28:26;25.70;;;17.57;;
71091;SDS011;58751;50.708;7.134;2023-02-10T09:30:52;28.10;;;19.47;;
71091;SDS011;58751;50.708;7.134;2023-02-10T09:33:17;27.90;;;18.97;;
71091;SDS011;58751;50.708;7.134;2023-02-10T09:35:42;26.57;;;18.70;;
71091;SDS011;58751;50.708;7.134;2023-02-10T09:38:09;25.27;;;18.00;;
71091;SDS011;58751;50.708;7.134;2023-02-10T09:40:37;30.63;;;19.27;;
71091;SDS011;58751;50.708;7.134;2023-02-10T09:43:09;27.98;;;19.35;;
71091;SDS011;58751;50.708;7.134;2023-02-10T09:45:38;23.85;;;17.60;;
71091;SDS011;58751;50.708;7.134;2023-02-10T09:48:07;22.10;;;16.23;;
71091;SDS011;58751;50.708;7.134;2023-02-10T09:50:40;29.45;;;19.65;;
71091;SDS011;58751;50.708;7.134;2023-02-10T09:53:12;25.67;;;17.77;;
71091;SDS011;58751;50.708;7.134;2023-02-10T09:55:39;33.22;;;18.52;;
71091;SDS011;58751;50.708;7.134;2023-02-10T09:58:06;24.88;;;18.95;;
71091;SDS011;58751;50.708;7.134;2023-02-10T10:00:35;26.55;;;18.77;;
71091;SDS011;58751;50.708;7.134;2023-02-10T10:03:03;26.77;;;16.75;;
71091;SDS011;58751;50.708;7.134;2023-02-10T10:05:38;25.02;;;16.52;;
71091;SDS011;58751;50.708;7.134;2023-02-10T10:08:07;24.48;;;16.08;;
71091;SDS011;58751;50.708;7.134;2023-02-10T10:10:38;24.65;;;16.85;;
71091;SDS011;58751;50.708;7.134;2023-02-10T10:13:06;26.13;;;18.27;;
71091;SDS011;58751;50.708;7.134;2023-02-10T10:15:36;25.65;;;17.55;;
71091;SDS011;58751;50.708;7.134;2023-02-10T10:18:05;25.00;;;16.67;;
71091;SDS011;58751;50.708;7.134;2023-02-10T10:20:36;25.77;;;17.48;;
71091;SDS011;58751;50.708;7.134;2023-02-10T10:23:07;22.63;;;17.20;;
71091;SDS011;58751;50.708;7.134;2023-02-10T10:25:49;25.90;;;17.38;;
71091;SDS011;58751;50.708;7.134;2023-02-10T10:28:20;28.63;;;17.00;;
71091;SDS011;58751;50.708;7.134;2023-02-10T10:30:47;26.25;;;16.35;;
71091;SDS011;58751;50.708;7.134;2023-02-10T10:33:20;23.90;;;15.20;;
71091;SDS011;58751;50.708;7.134;2023-02-10T10:35:46;22.42;;;15.02;;
71091;SDS011;58751;50.708;7.134;2023-02-10T10:38:12;22.03;;;13.90;;
71091;SDS011;58751;50.708;7.134;2023-02-10T10:40:38;27.08;;;16.25;;
71091;SDS011;58751;50.708;7.134;2023-02-10T10:43:05;20.40;;;13.77;;
71091;SDS011;58751;50.708;7.134;2023-02-10T10:45:31;25.17;;;16.98;;
71091;SDS011;58751;50.708;7.134;2023-02-10T10:47:59;26.20;;;14.90;;
71091;SDS011;58751;50.708;7.134;2023-02-10T10:50:26;22.83;;;16.92;;
71091;SDS011;58751;50.708;7.134;2023-02-10T10:52:52;29.13;;;16.60;;
71091;SDS011;58751;50.708;7.134;2023-02-10T10:55:19;22.05;;;16.17;;
71091;SDS011;58751;50.708;7.134;2023-02-10T10:57:47;22.73;;;15.23;;
71091;SDS011;58751;50.708;7.134;2023-02-10T11:00:17;21.70;;;14.87;;
71091;SDS011;58751;50.708;7.134;2023-02-10T11:02:51;25.75;;;15.38;;
71091;SDS011;58751;50.708;7.134;2023-02-10T11:05:16;21.92;;;14.70;;
71091;SDS011;58751;50.708;7.134;2023-02-10T11:07:41;19.93;;;14.47;;
71091;SDS011;58751;50.708;7.134;2023-02-10T11:10:15;21.07;;;13.50;;
71091;SDS011;58751;50.708;7.134;2023-02-10T11:12:44;21.80;;;13.73;;
71091;SDS011;58751;50.708;7.134;2023-02-10T11:15:28;21.43;;;14.50;;
71091;SDS011;58751;50.708;7.134;2023-02-10T11:17:54;21.00;;;14.38;;
71091;SDS011;58751;50.708;7.134;2023-02-10T11:20:21;20.30;;;13.53;;
71091;SDS011;58751;50.708;7.134;2023-02-10T11:22:54;19.98;;;13.60;;
71091;SDS011;58751;50.708;7.134;2023-02-10T11:25:24;19.85;;;12.95;;
71091;SDS011;58751;50.708;7.134;2023-02-10T11:27:50;22.67;;;14.85;;
71091;SDS011;58751;50.708;7.134;2023-02-10T11:30:23;21.77;;;14.13;;
71091;SDS011;58751;50.708;7.134;2023-02-10T11:32:49;18.27;;;13.32;;
71091;SDS011;58751;50.708;7.134;2023-02-10T11:35:14;20.07;;;13.87;;
71091;SDS011;58751;50.708;7.134;2023-02-10T11:37:40;23.20;;;14.68;;
71091;SDS011;58751;50.708;7.134;2023-02-10T11:40:15;21.53;;;12.97;;
71091;SDS011;58751;50.708;7.134;2023-02-10T11:42:41;20.48;;;13.73;;
71091;SDS011;58751;50.708;7.134;2023-02-10T11:45:15;18.65;;;12.23;;
71091;SDS011;58751;50.708;7.134;2023-02-10T11:47:42;19.33;;;14.00;;
71091;SDS011;58751;50.708;7.134;2023-02-10T11:50:18;17.48;;;13.82;;
71091;SDS011;58751;50.708;7.134;2023-02-10T11:52:43;20.15;;;13.23;;
71091;SDS011;58751;50.708;7.134;2023-02-10T11:55:11;21.47;;;12.60;;
71091;SDS011;58751;50.708;7.134;2023-02-10T11:57:39;16.00;;;11.45;;
71091;SDS011;58751;50.708;7.134;2023-02-10T12:00:10;14.73;;;11.25;;
71091;SDS011;58751;50.708;7.134;2023-02-10T12:02:40;17.27;;;12.10;;
71091;SDS011;58751;50.708;7.134;2023-02-10T12:05:13;23.20;;;12.68;;
71091;SDS011;58751;50.708;7.134;2023-02-10T12:07:51;22.92;;;13.82;;
71091;SDS011;58751;50.708;7.134;2023-02-10T12:10:20;25.38;;;12.63;;
71091;SDS011;58751;50.708;7.134;2023-02-10T12:12:50;21.10;;;14.25;;
71091;SDS011;58751;50.708;7.134;2023-02-10T12:15:20;16.20;;;11.40;;
71091;SDS011;58751;50.708;7.134;2023-02-10T12:17:49;14.98;;;11.35;;
71091;SDS011;58751;50.708;7.134;2023-02-10T12:20:21;17.05;;;12.13;;
71091;SDS011;58751;50.708;7.134;2023-02-10T12:22:57;18.35;;;11.60;;
71091;SDS011;58751;50.708;7.134;2023-02-10T12:25:23;19.77;;;12.10;;
71091;SDS011;58751;50.708;7.134;2023-02-10T12:27:53;16.30;;;10.93;;
71091;SDS011;58751;50.708;7.134;2023-02-10T12:30:24;13.50;;;9.80;;
71091;SDS011;58751;50.708;7.134;2023-02-10T12:32:54;17.67;;;11.75;;
71091;SDS011;58751;50.708;7.134;2023-02-10T12:35:30;14.80;;;11.60;;
71091;SDS011;58751;50.708;7.134;2023-02-10T12:38:01;17.75;;;11.52;;
71091;SDS011;58751;50.708;7.134;2023-02-10T12:40:37;18.13;;;10.32;;
71091;SDS011;58751;50.708;7.134;2023-02-10T12:43:09;19.13;;;10.35;;
71091;SDS011;58751;50.708;7.134;2023-02-10T12:45:38;14.02;;;10.63;;
71091;SDS011;58751;50.708;7.134;2023-02-10T12:48:11;16.98;;;10.63;;
71091;SDS011;58751;50.708;7.134;2023-02-10T12:50:46;18.48;;;11.15;;
71091;SDS011;58751;50.708;7.134;2023-02-10T12:53:13;16.67;;;10.43;;
71091;SDS011;58751;50.708;7.134;2023-02-10T12:55:41;12.18;;;10.35;;
71091;SDS011;58751;50.708;7.134;2023-02-10T12:58:10;16.88;;;10.25;;
71091;SDS011;58751;50.708;7.134;2023-02-10T13:00:37;17.63;;;10.25;;
71091;SDS011;58751;50.708;7.134;2023-02-10T13:03:05;14.52;;;8.95;;
71091;SDS011;58751;50.708;7.134;2023-02-10T13:05:33;13.07;;;9.75;;
71091;SDS011;58751;50.708;7.134;2023-02-10T13:08:01;18.90;;;12.70;;
71091;SDS011;58751;50.708;7.134;2023-02-10T13:10:29;19.55;;;10.40;;
71091;SDS011;58751;50.708;7.134;2023-02-10T13:12:56;16.55;;;10.35;;
71091;SDS011;58751;50.708;7.134;2023-02-10T13:15:23;14.05;;;9.65;;
71091;SDS011;58751;50.708;7.134;2023-02-10T13:17:50;11.68;;;9.02;;
71091;SDS011;58751;50.708;7.134;2023-02-10T13:20:19;17.05;;;10.20;;
71091;SDS011;58751;50.708;7.134;2023-02-10T13:22:49;11.40;;;8.85;;
71091;SDS011;58751;50.708;7.134;2023-02-10T13:25:17;9.93;;;7.38;;
71091;SDS011;58751;50.708;7.134;2023-02-10T13:27:47;13.57;;;8.55;;
71091;SDS011;58751;50.708;7.134;2023-02-10T13:30:19;17.08;;;9.43;;
71091;SDS011;58751;50.708;7.134;2023-02-10T13:32:50;15.18;;;9.93;;
71091;SDS011;58751;50.708;7.134;2023-02-10T13:35:20;12.40;;;9.70;;
71091;SDS011;58751;50.708;7.134;2023-02-10T13:37:47;12.30;;;8.80;;
71091;SDS011;58751;50.708;7.134;2023-02-10T13:40:15;11.30;;;9.15;;
71091;SDS011;58751;50.708;7.134;2023-02-10T13:42:47;10.23;;;7.88;;
71091;SDS011;58751;50.708;7.134;2023-02-10T13:45:14;11.07;;;7.57;;
71091;SDS011;58751;50.708;7.134;2023-02-10T13:47:41;10.70;;;8.00;;
71091;SDS011;58751;50.708;7.134;2023-02-10T13:50:17;10.43;;;7.70;;
71091;SDS011;58751;50.708;7.134;2023-02-10T13:52:48;8.70;;;7.80;;
71091;SDS011;58751;50.708;7.134;2023-02-10T13:55:24;10.07;;;7.93;;
71091;SDS011;58751;50.708;7.134;2023-02-10T13:57:53;8.82;;;7.93;;
71091;SDS011;58751;50.708;7.134;2023-02-10T14:00:19;11.00;;;7.60;;
71091;SDS011;58751;50.708;7.134;2023-02-10T14:02:57;13.27;;;7.50;;
71091;SDS011;58751;50.708;7.134;2023-02-10T14:05:31;10.57;;;7.00;;
71091;SDS011;58751;50.708;7.134;2023-02-10T14:07:57;9.50;;;6.95;;
71091;SDS011;58751;50.708;7.134;2023-02-10T14:10:30;9.43;;;7.63;;
71091;SDS011;58751;50.708;7.134;2023-02-10T14:12:58;8.88;;;7.22;;
71091;SDS011;58751;50.708;7.134;2023-02-10T14:15:24;9.10;;;7.63;;
71091;SDS011;58751;50.708;7.134;2023-02-10T14:17:57;8.88;;;7.90;;
71091;SDS011;58751;50.708;7.134;2023-02-10T14:20:27;11.00;;;8.10;;
71091;SDS011;58751;50.708;7.134;2023-02-10T14:22:52;11.50;;;7.82;;
71091;SDS011;58751;50.708;7.134;2023-02-10T14:25:32;13.82;;;9.68;;